CST,Max TemperatureF,Mean TemperatureF,Min TemperatureF,Max Dew PointF,MeanDew PointF,Min DewpointF,Max Humidity, Mean Humidity, Min Humidity, Max Sea Level PressureIn, Mean Sea Level PressureIn, Min Sea Level PressureIn, Max VisibilityMiles, Mean VisibilityMiles, Min VisibilityMiles, Max Wind SpeedMPH, Mean Wind SpeedMPH, Max Gust SpeedMPH,PrecipitationIn, CloudCover, Events, WindDirDegrees
2012-11-1,65,48,30,40,32,24,78,59,39,29.98,29.94,29.85,10,9,2,17,7,24,0.00,2,,299
2012-11-2,50,41,32,30,29,28,82,62,42,30.12,30.07,29.98,10,10,10,13,8,16,0.00,0,,67
2012-11-3,52,43,33,36,33,28,89,70,50,30.23,30.16,30.08,10,10,8,15,7,18,0.00,5,,61
2012-11-4,48,38,28,39,33,28,100,80,60,30.28,30.22,30.17,10,6,2,7,2,10,0.09,5,Rain,177
2012-11-5,44,41,38,38,36,33,92,79,65,30.17,30.14,30.10,10,7,4,14,6,17,0.07,8,Rain,111
2012-11-6,46,43,40,43,39,35,100,87,73,30.10,29.95,29.86,10,6,1,15,7,22,0.12,8,Rain,236
2012-11-7,45,43,40,39,37,33,100,83,65,30.18,30.06,29.92,10,10,4,17,7,22,T,8,Rain,349
2012-11-8,54,43,32,39,36,31,96,75,54,30.19,30.11,30.02,10,9,6,17,9,21,0.00,0,,170
2012-11-9,65,54,42,52,45,37,83,70,56,30.01,29.94,29.87,10,10,10,13,7,14,0.00,2,,155
2012-11-10,73,65,57,55,51,43,86,63,40,29.88,29.82,29.77,10,10,10,29,16,37,T,1,Rain-Thunderstorm,183
2012-11-11,65,47,29,57,43,21,100,80,60,30.11,29.85,29.69,10,6,1,30,14,41,1.00,6,Rain-Snow,277
2012-11-12,38,31,24,23,20,16,75,64,52,30.42,30.26,30.12,10,10,10,25,10,32,0.00,1,,269
2012-11-13,45,33,20,25,23,19,88,67,45,30.53,30.47,30.43,10,10,10,10,4,13,0.00,0,,181
2012-11-14,53,44,34,33,28,25,75,60,44,30.46,30.40,30.35,10,10,10,15,8,18,0.00,0,,175
2012-11-15,55,43,31,33,29,27,85,63,41,30.38,30.34,30.30,10,9,3,12,6,14,0.00,0,,196
2012-11-16,57,44,31,37,34,28,89,68,47,30.46,30.43,30.38,10,8,5,8,3,9,0.00,0,,49
2012-11-17,57,46,34,34,31,29,82,61,39,30.49,30.43,30.39,10,9,7,13,7,17,0.00,0,,160
2012-11-18,61,48,35,34,33,31,82,59,35,30.38,30.32,30.25,10,9,7,15,9,21,0.00,0,,167
2012-11-19,53,48,43,48,42,33,93,72,50,30.23,30.16,30.08,10,8,4,16,9,22,0.04,5,Rain,186
2012-11-20,53,44,34,48,44,34,100,92,83,30.22,30.13,30.05,5,1,0,10,4,12,0.00,5,Fog,322
2012-11-21,61,48,35,49,43,36,100,80,60,30.25,30.17,30.06,10,4,0,15,8,20,0.00,2,Fog,198
2012-11-22,64,53,41,52,44,33,82,65,47,30.09,29.91,29.79,10,9,2,25,14,39,0.05,3,Rain-Thunderstorm,219
2012-11-23,41,33,24,33,19,14,79,63,47,30.35,30.26,30.09,10,10,10,28,15,40,0.00,1,,306
2012-11-24,31,25,18,21,17,13,84,73,62,30.35,30.21,29.94,10,10,9,14,8,18,0.00,1,,235
2012-11-25,45,38,30,27,25,21,72,59,45,30.12,29.97,29.88,10,10,7,13,7,17,0.00,2,,312
2012-11-26,34,27,19,25,19,12,78,64,50,30.45,30.31,30.13,10,10,9,17,10,22,0.00,4,,354
2012-11-27,34,24,13,19,14,9,84,63,41,30.47,30.38,30.30,10,10,7,13,5,16,0.00,1,,237
2012-11-28,46,33,20,26,22,15,78,60,42,30.44,30.34,30.26,10,10,4,12,4,14,0.00,0,,215
2012-11-29,55,42,28,35,31,24,85,66,46,30.25,30.11,30.02,10,10,5,18,7,23,0.00,0,,179
2012-11-30,56,46,35,40,35,30,82,67,51,30.10,30.05,30.01,10,10,8,9,4,10,0.00,1,,163